sensor_id;sensor_type;location;lat;lon;timestamp;P1;durP1;ratioP1;P2;durP2;ratioP2
21681;SDS011;11002;48.256;10.084;2023-11-19T00:00:06;1.52;;;1.00;;
21681;SDS011;11002;48.256;10.084;2023-11-19T00:02:38;2.00;;;1.52;;
21681;SDS011;11002;48.256;10.084;2023-11-19T00:05:05;1.73;;;1.10;;
21681;SDS011;11002;48.256;10.084;2023-11-19T00:07:34;6.47;;;0.85;;
21681;SDS011;11002;48.256;10.084;2023-11-19T00:10:02;1.40;;;0.93;;
21681;SDS011;11002;48.256;10.084;2023-11-19T00:12:36;0.77;;;0.60;;
21681;SDS011;11002;48.256;10.084;2023-11-19T00:15:05;0.85;;;0.80;;
21681;SDS011;11002;48.256;10.084;2023-11-19T00:17:38;3.03;;;1.13;;
21681;SDS011;11002;48.256;10.084;2023-11-19T00:20:06;1.13;;;0.82;;
21681;SDS011;11002;48.256;10.084;2023-11-19T00:22:34;0.98;;;0.95;;
21681;SDS011;11002;48.256;10.084;2023-11-19T00:25:01;2.33;;;1.10;;
21681;SDS011;11002;48.256;10.084;2023-11-19T00:27:29;2.03;;;1.20;;
21681;SDS011;11002;48.256;10.084;2023-11-19T00:29:56;0.80;;;0.80;;
21681;SDS011;11002;48.256;10.084;2023-11-19T00:32:24;2.00;;;0.98;;
21681;SDS011;11002;48.256;10.084;2023-11-19T00:34:53;0.90;;;0.85;;
21681;SDS011;11002;48.256;10.084;2023-11-19T00:37:20;1.50;;;1.00;;
21681;SDS011;11002;48.256;10.084;2023-11-19T00:39:47;0.98;;;0.90;;
21681;SDS011;11002;48.256;10.084;2023-11-19T00:42:14;2.80;;;1.23;;
21681;SDS011;11002;48.256;10.084;2023-11-19T00:44:42;1.92;;;0.93;;
21681;SDS011;11002;48.256;10.084;2023-11-19T00:47:09;1.10;;;1.00;;
21681;SDS011;11002;48.256;10.084;2023-11-19T00:49:36;2.35;;;1.02;;
21681;SDS011;11002;48.256;10.084;2023-11-19T00:52:05;2.13;;;1.30;;
21681;SDS011;11002;48.256;10.084;2023-11-19T00:54:32;0.80;;;0.80;;
21681;SDS011;11002;48.256;10.084;2023-11-19T00:57:00;1.30;;;1.20;;
21681;SDS011;11002;48.256;10.084;2023-11-19T00:59:27;1.15;;;1.05;;
21681;SDS011;11002;48.256;10.084;2023-11-19T01:01:55;1.55;;;1.08;;
21681;SDS011;11002;48.256;10.084;2023-11-19T01:04:23;1.17;;;1.08;;
21681;SDS011;11002;48.256;10.084;2023-11-19T01:06:50;5.63;;;1.35;;
21681;SDS011;11002;48.256;10.084;2023-11-19T01:09:19;2.60;;;1.42;;
21681;SDS011;11002;48.256;10.084;2023-11-19T01:11:46;1.40;;;1.00;;
21681;SDS011;11002;48.256;10.084;2023-11-19T01:14:13;1.88;;;1.10;;
21681;SDS011;11002;48.256;10.084;2023-11-19T01:16:43;2.47;;;1.10;;
21681;SDS011;11002;48.256;10.084;2023-11-19T01:19:10;1.30;;;1.13;;
21681;SDS011;11002;48.256;10.084;2023-11-19T01:21:37;1.45;;;1.13;;
21681;SDS011;11002;48.256;10.084;2023-11-19T01:24:06;1.20;;;1.10;;
21681;SDS011;11002;48.256;10.084;2023-11-19T01:26:36;1.48;;;1.38;;
21681;SDS011;11002;48.256;10.084;2023-11-19T01:29:03;3.50;;;1.30;;
21681;SDS011;11002;48.256;10.084;2023-11-19T01:31:32;1.38;;;1.27;;
21681;SDS011;11002;48.256;10.084;2023-11-19T01:33:59;2.17;;;1.40;;
21681;SDS011;11002;48.256;10.084;2023-11-19T01:36:26;1.63;;;1.25;;
21681;SDS011;11002;48.256;10.084;2023-11-19T01:38:54;1.20;;;1.05;;
21681;SDS011;11002;48.256;10.084;2023-11-19T01:41:21;0.90;;;0.80;;
21681;SDS011;11002;48.256;10.084;2023-11-19T01:43:51;2.28;;;1.50;;
21681;SDS011;11002;48.256;10.084;2023-11-19T01:46:19;1.58;;;1.30;;
21681;SDS011;11002;48.256;10.084;2023-11-19T01:48:47;2.08;;;1.48;;
21681;SDS011;11002;48.256;10.084;2023-11-19T01:51:14;1.40;;;1.30;;
21681;SDS011;11002;48.256;10.084;2023-11-19T01:53:43;1.23;;;1.10;;
21681;SDS011;11002;48.256;10.084;2023-11-19T01:56:11;2.85;;;1.23;;
21681;SDS011;11002;48.256;10.084;2023-11-19T01:58:41;1.33;;;0.98;;
21681;SDS011;11002;48.256;10.084;2023-11-19T02:01:10;1.08;;;0.98;;
21681;SDS011;11002;48.256;10.084;2023-11-19T02:03:39;2.38;;;1.00;;
21681;SDS011;11002;48.256;10.084;2023-11-19T02:06:06;1.27;;;1.17;;
21681;SDS011;11002;48.256;10.084;2023-11-19T02:08:35;1.77;;;1.45;;
21681;SDS011;11002;48.256;10.084;2023-11-19T02:11:04;1.13;;;1.02;;
21681;SDS011;11002;48.256;10.084;2023-11-19T02:13:32;1.23;;;1.13;;
21681;SDS011;11002;48.256;10.084;2023-11-19T02:16:01;1.38;;;1.25;;
21681;SDS011;11002;48.256;10.084;2023-11-19T02:18:30;1.27;;;1.17;;
21681;SDS011;11002;48.256;10.084;2023-11-19T02:20:58;1.50;;;1.40;;
21681;SDS011;11002;48.256;10.084;2023-11-19T02:23:26;1.23;;;1.10;;
21681;SDS011;11002;48.256;10.084;2023-11-19T02:25:58;1.60;;;1.20;;
21681;SDS011;11002;48.256;10.084;2023-11-19T02:28:32;2.28;;;1.25;;
21681;SDS011;11002;48.256;10.084;2023-11-19T02:30:59;1.27;;;1.17;;
21681;SDS011;11002;48.256;10.084;2023-11-19T02:33:27;1.20;;;1.10;;
21681;SDS011;11002;48.256;10.084;2023-11-19T02:35:54;1.30;;;1.20;;
21681;SDS011;11002;48.256;10.084;2023-11-19T02:38:22;2.92;;;1.30;;
21681;SDS011;11002;48.256;10.084;2023-11-19T02:40:50;1.25;;;1.10;;
21681;SDS011;11002;48.256;10.084;2023-11-19T02:43:17;1.80;;;0.95;;
21681;SDS011;11002;48.256;10.084;2023-11-19T02:45:46;1.63;;;0.90;;
21681;SDS011;11002;48.256;10.084;2023-11-19T02:48:13;2.45;;;1.08;;
21681;SDS011;11002;48.256;10.084;2023-11-19T02:50:41;4.18;;;1.13;;
21681;SDS011;11002;48.256;10.084;2023-11-19T02:53:08;1.25;;;1.13;;
21681;SDS011;11002;48.256;10.084;2023-11-19T02:55:36;1.80;;;1.00;;
21681;SDS011;11002;48.256;10.084;2023-11-19T02:58:06;1.63;;;1.20;;
21681;SDS011;11002;48.256;10.084;2023-11-19T03:00:49;0.80;;;0.80;;
21681;SDS011;11002;48.256;10.084;2023-11-19T03:03:23;1.17;;;1.00;;
21681;SDS011;11002;48.256;10.084;2023-11-19T03:05:56;0.95;;;0.77;;
21681;SDS011;11002;48.256;10.084;2023-11-19T03:08:23;1.27;;;0.98;;
21681;SDS011;11002;48.256;10.084;2023-11-19T03:10:51;1.38;;;0.98;;
21681;SDS011;11002;48.256;10.084;2023-11-19T03:13:18;1.42;;;1.08;;
21681;SDS011;11002;48.256;10.084;2023-11-19T03:15:45;1.25;;;1.15;;
21681;SDS011;11002;48.256;10.084;2023-11-19T03:18:14;1.55;;;1.30;;
21681;SDS011;11002;48.256;10.084;2023-11-19T03:20:41;0.98;;;0.98;;
21681;SDS011;11002;48.256;10.084;2023-11-19T03:23:08;1.13;;;1.00;;
21681;SDS011;11002;48.256;10.084;2023-11-19T03:25:36;1.67;;;1.23;;
21681;SDS011;11002;48.256;10.084;2023-11-19T03:28:03;0.90;;;0.90;;
21681;SDS011;11002;48.256;10.084;2023-11-19T03:30:32;1.13;;;1.02;;
21681;SDS011;11002;48.256;10.084;2023-11-19T03:32:59;1.00;;;0.90;;
21681;SDS011;11002;48.256;10.084;2023-11-19T03:35:29;1.50;;;1.38;;
21681;SDS011;11002;48.256;10.084;2023-11-19T03:37:58;1.80;;;1.08;;
21681;SDS011;11002;48.256;10.084;2023-11-19T03:40:26;1.67;;;1.15;;
21681;SDS011;11002;48.256;10.084;2023-11-19T03:42:55;1.65;;;1.30;;
21681;SDS011;11002;48.256;10.084;2023-11-19T03:45:23;1.02;;;0.90;;
21681;SDS011;11002;48.256;10.084;2023-11-19T03:47:50;2.70;;;1.50;;
21681;SDS011;11002;48.256;10.084;2023-11-19T03:50:17;2.17;;;1.40;;
21681;SDS011;11002;48.256;10.084;2023-11-19T03:52:47;1.95;;;1.08;;
21681;SDS011;11002;48.256;10.084;2023-11-19T03:55:14;1.40;;;1.10;;
21681;SDS011;11002;48.256;10.084;2023-11-19T03:57:41;1.45;;;1.10;;
21681;SDS011;11002;48.256;10.084;2023-11-19T04:00:09;2.20;;;1.20;;
21681;SDS011;11002;48.256;10.084;2023-11-19T04:02:39;1.70;;;1.60;;
21681;SDS011;11002;48.256;10.084;2023-11-19T04:05:07;1.20;;;1.10;;
21681;SDS011;11002;48.256;10.084;2023-11-19T04:07:35;2.15;;;1.50;;
21681;SDS011;11002;48.256;10.084;2023-11-19T04:10:04;1.40;;;1.30;;
21681;SDS011;11002;48.256;10.084;2023-11-19T04:12:32;1.70;;;1.60;;
21681;SDS011;11002;48.256;10.084;2023-11-19T04:14:59;2.08;;;1.40;;
21681;SDS011;11002;48.256;10.084;2023-11-19T04:17:27;1.60;;;1.45;;
21681;SDS011;11002;48.256;10.084;2023-11-19T04:19:54;2.05;;;1.30;;
21681;SDS011;11002;48.256;10.084;2023-11-19T04:22:21;3.92;;;1.40;;
21681;SDS011;11002;48.256;10.084;2023-11-19T04:24:49;2.67;;;1.40;;
21681;SDS011;11002;48.256;10.084;2023-11-19T04:27:17;1.30;;;1.20;;
21681;SDS011;11002;48.256;10.084;2023-11-19T04:29:45;1.30;;;1.10;;
21681;SDS011;11002;48.256;10.084;2023-11-19T04:32:14;3.30;;;1.60;;
21681;SDS011;11002;48.256;10.084;2023-11-19T04:34:41;1.70;;;1.27;;
21681;SDS011;11002;48.256;10.084;2023-11-19T04:37:08;1.50;;;1.40;;
21681;SDS011;11002;48.256;10.084;2023-11-19T04:39:36;2.58;;;1.67;;
21681;SDS011;11002;48.256;10.084;2023-11-19T04:42:03;1.60;;;1.38;;
21681;SDS011;11002;48.256;10.084;2023-11-19T04:44:33;1.85;;;1.40;;
21681;SDS011;11002;48.256;10.084;2023-11-19T04:47:00;1.30;;;1.20;;
21681;SDS011;11002;48.256;10.084;2023-11-19T04:49:27;1.63;;;1.45;;
21681;SDS011;11002;48.256;10.084;2023-11-19T04:51:55;3.92;;;1.85;;
21681;SDS011;11002;48.256;10.084;2023-11-19T04:54:23;1.80;;;1.40;;
21681;SDS011;11002;48.256;10.084;2023-11-19T04:56:50;2.38;;;1.52;;
21681;SDS011;11002;48.256;10.084;2023-11-19T04:59:18;2.20;;;1.73;;
21681;SDS011;11002;48.256;10.084;2023-11-19T05:01:47;2.70;;;1.55;;
21681;SDS011;11002;48.256;10.084;2023-11-19T05:04:15;1.73;;;1.30;;
21681;SDS011;11002;48.256;10.084;2023-11-19T05:06:44;1.90;;;1.60;;
21681;SDS011;11002;48.256;10.084;2023-11-19T05:09:11;1.30;;;1.20;;
21681;SDS011;11002;48.256;10.084;2023-11-19T05:11:39;2.20;;;1.58;;
21681;SDS011;11002;48.256;10.084;2023-11-19T05:14:06;1.80;;;1.58;;
21681;SDS011;11002;48.256;10.084;2023-11-19T05:16:34;1.20;;;1.10;;
21681;SDS011;11002;48.256;10.084;2023-11-19T05:19:03;5.85;;;1.75;;
21681;SDS011;11002;48.256;10.084;2023-11-19T05:21:30;2.72;;;1.60;;
21681;SDS011;11002;48.256;10.084;2023-11-19T05:23:57;1.42;;;1.20;;
21681;SDS011;11002;48.256;10.084;2023-11-19T05:26:24;2.05;;;1.27;;
21681;SDS011;11002;48.256;10.084;2023-11-19T05:28:52;2.67;;;1.50;;
21681;SDS011;11002;48.256;10.084;2023-11-19T05:31:19;1.52;;;1.20;;
21681;SDS011;11002;48.256;10.084;2023-11-19T05:33:46;2.63;;;1.35;;
21681;SDS011;11002;48.256;10.084;2023-11-19T05:36:15;2.05;;;1.65;;
21681;SDS011;11002;48.256;10.084;2023-11-19T05:38:42;1.52;;;1.20;;
21681;SDS011;11002;48.256;10.084;2023-11-19T05:41:10;1.02;;;0.98;;
21681;SDS011;11002;48.256;10.084;2023-11-19T05:43:37;1.55;;;1.23;;
21681;SDS011;11002;48.256;10.084;2023-11-19T05:46:05;2.03;;;1.35;;
21681;SDS011;11002;48.256;10.084;2023-11-19T05:48:34;1.58;;;1.10;;
21681;SDS011;11002;48.256;10.084;2023-11-19T05:51:01;2.53;;;1.13;;
21681;SDS011;11002;48.256;10.084;2023-11-19T05:53:30;1.40;;;1.30;;
21681;SDS011;11002;48.256;10.084;2023-11-19T05:55:57;1.13;;;1.02;;
21681;SDS011;11002;48.256;10.084;2023-11-19T05:58:29;1.90;;;1.60;;
21681;SDS011;11002;48.256;10.084;2023-11-19T06:00:58;1.52;;;1.30;;
21681;SDS011;11002;48.256;10.084;2023-11-19T06:03:26;1.50;;;1.40;;
21681;SDS011;11002;48.256;10.084;2023-11-19T06:05:54;1.30;;;1.20;;
21681;SDS011;11002;48.256;10.084;2023-11-19T06:08:21;1.70;;;1.20;;
21681;SDS011;11002;48.256;10.084;2023-11-19T06:10:50;1.13;;;1.02;;
21681;SDS011;11002;48.256;10.084;2023-11-19T06:13:17;1.58;;;1.20;;
21681;SDS011;11002;48.256;10.084;2023-11-19T06:15:45;2.05;;;1.33;;
21681;SDS011;11002;48.256;10.084;2023-11-19T06:18:12;1.67;;;1.15;;
21681;SDS011;11002;48.256;10.084;2023-11-19T06:20:40;1.00;;;0.93;;
21681;SDS011;11002;48.256;10.084;2023-11-19T06:23:07;1.35;;;0.95;;
21681;SDS011;11002;48.256;10.084;2023-11-19T06:25:35;0.80;;;0.80;;
21681;SDS011;11002;48.256;10.084;2023-11-19T06:28:03;1.05;;;0.90;;
21681;SDS011;11002;48.256;10.084;2023-11-19T06:30:31;0.77;;;0.77;;
21681;SDS011;11002;48.256;10.084;2023-11-19T06:32:58;0.93;;;0.73;;
21681;SDS011;11002;48.256;10.084;2023-11-19T06:35:26;0.82;;;0.77;;
21681;SDS011;11002;48.256;10.084;2023-11-19T06:37:55;1.58;;;0.88;;
21681;SDS011;11002;48.256;10.084;2023-11-19T06:40:23;1.45;;;1.10;;
21681;SDS011;11002;48.256;10.084;2023-11-19T06:42:51;1.20;;;1.10;;
21681;SDS011;11002;48.256;10.084;2023-11-19T06:45:20;1.00;;;0.90;;
21681;SDS011;11002;48.256;10.084;2023-11-19T06:47:47;0.85;;;0.85;;
21681;SDS011;11002;48.256;10.084;2023-11-19T06:50:15;1.73;;;1.20;;
21681;SDS011;11002;48.256;10.084;2023-11-19T06:52:44;1.42;;;0.90;;
21681;SDS011;11002;48.256;10.084;2023-11-19T06:55:11;1.10;;;0.90;;
21681;SDS011;11002;48.256;10.084;2023-11-19T06:57:39;1.55;;;0.98;;
21681;SDS011;11002;48.256;10.084;2023-11-19T07:00:06;1.35;;;0.82;;
21681;SDS011;11002;48.256;10.084;2023-11-19T07:02:36;1.30;;;1.02;;
21681;SDS011;11002;48.256;10.084;2023-11-19T07:05:03;1.27;;;0.88;;
21681;SDS011;11002;48.256;10.084;2023-11-19T07:07:31;1.90;;;1.27;;
21681;SDS011;11002;48.256;10.084;2023-11-19T07:09:59;0.90;;;0.90;;
21681;SDS011;11002;48.256;10.084;2023-11-19T07:12:27;0.80;;;0.80;;
21681;SDS011;11002;48.256;10.084;2023-11-19T07:14:54;0.77;;;0.77;;
21681;SDS011;11002;48.256;10.084;2023-11-19T07:17:22;0.88;;;0.70;;
21681;SDS011;11002;48.256;10.084;2023-11-19T07:19:50;1.42;;;1.10;;
21681;SDS011;11002;48.256;10.084;2023-11-19T07:22:18;3.08;;;0.90;;
21681;SDS011;11002;48.256;10.084;2023-11-19T07:24:44;1.33;;;0.85;;
21681;SDS011;11002;48.256;10.084;2023-11-19T07:27:11;1.77;;;1.05;;
21681;SDS011;11002;48.256;10.084;2023-11-19T07:29:39;0.80;;;0.80;;
21681;SDS011;11002;48.256;10.084;2023-11-19T07:32:06;0.75;;;0.75;;
21681;SDS011;11002;48.256;10.084;2023-11-19T07:34:34;1.60;;;1.20;;
21681;SDS011;11002;48.256;10.084;2023-11-19T07:37:02;1.10;;;1.00;;
21681;SDS011;11002;48.256;10.084;2023-11-19T07:39:30;1.25;;;0.90;;
21681;SDS011;11002;48.256;10.084;2023-11-19T07:41:58;1.45;;;0.98;;
21681;SDS011;11002;48.256;10.084;2023-11-19T07:44:25;1.13;;;1.00;;
21681;SDS011;11002;48.256;10.084;2023-11-19T07:46:52;1.92;;;1.20;;
21681;SDS011;11002;48.256;10.084;2023-11-19T07:49:19;1.15;;;1.00;;
21681;SDS011;11002;48.256;10.084;2023-11-19T07:51:47;1.13;;;0.90;;
21681;SDS011;11002;48.256;10.084;2023-11-19T07:54:15;7.50;;;4.60;;
21681;SDS011;11002;48.256;10.084;2023-11-19T07:56:42;1.10;;;0.80;;
21681;SDS011;11002;48.256;10.084;2023-11-19T07:59:10;1.50;;;0.70;;
21681;SDS011;11002;48.256;10.084;2023-11-19T08:01:37;1.98;;;0.90;;
21681;SDS011;11002;48.256;10.084;2023-11-19T08:04:05;4.10;;;3.03;;
21681;SDS011;11002;48.256;10.084;2023-11-19T08:06:32;3.03;;;1.10;;
21681;SDS011;11002;48.256;10.084;2023-11-19T08:09:00;1.63;;;1.50;;
21681;SDS011;11002;48.256;10.084;2023-11-19T08:11:28;1.50;;;1.40;;
21681;SDS011;11002;48.256;10.084;2023-11-19T08:13:56;1.45;;;0.82;;
21681;SDS011;11002;48.256;10.084;2023-11-19T08:16:23;0.68;;;0.68;;
21681;SDS011;11002;48.256;10.084;2023-11-19T08:18:51;1.13;;;0.90;;
21681;SDS011;11002;48.256;10.084;2023-11-19T08:21:18;1.33;;;1.20;;
21681;SDS011;11002;48.256;10.084;2023-11-19T08:23:46;0.88;;;0.88;;
21681;SDS011;11002;48.256;10.084;2023-11-19T08:26:14;2.55;;;1.00;;
21681;SDS011;11002;48.256;10.084;2023-11-19T08:28:43;1.15;;;0.82;;
21681;SDS011;11002;48.256;10.084;2023-11-19T08:31:10;2.38;;;1.65;;
21681;SDS011;11002;48.256;10.084;2023-11-19T08:33:37;1.00;;;0.80;;
21681;SDS011;11002;48.256;10.084;2023-11-19T08:36:05;0.60;;;0.60;;
21681;SDS011;11002;48.256;10.084;2023-11-19T08:38:33;0.65;;;0.60;;
21681;SDS011;11002;48.256;10.084;2023-11-19T08:41:00;0.80;;;0.80;;
21681;SDS011;11002;48.256;10.084;2023-11-19T08:43:28;0.80;;;0.80;;
21681;SDS011;11002;48.256;10.084;2023-11-19T08:45:58;1.25;;;0.80;;
21681;SDS011;11002;48.256;10.084;2023-11-19T08:48:25;0.60;;;0.60;;
21681;SDS011;11002;48.256;10.084;2023-11-19T08:50:53;1.63;;;0.68;;
21681;SDS011;11002;48.256;10.084;2023-11-19T08:53:20;0.55;;;0.47;;
21681;SDS011;11002;48.256;10.084;2023-11-19T08:55:47;0.82;;;0.82;;
21681;SDS011;11002;48.256;10.084;2023-11-19T08:58:15;0.95;;;0.80;;
21681;SDS011;11002;48.256;10.084;2023-11-19T09:00:43;0.80;;;0.77;;
21681;SDS011;11002;48.256;10.084;2023-11-19T09:03:12;0.73;;;0.73;;
21681;SDS011;11002;48.256;10.084;2023-11-19T09:05:39;0.77;;;0.73;;
21681;SDS011;11002;48.256;10.084;2023-11-19T09:08:07;0.85;;;0.85;;
21681;SDS011;11002;48.256;10.084;2023-11-19T09:10:34;0.63;;;0.60;;
21681;SDS011;11002;48.256;10.084;2023-11-19T09:13:01;0.30;;;0.30;;
21681;SDS011;11002;48.256;10.084;2023-11-19T09:15:29;0.50;;;0.50;;
21681;SDS011;11002;48.256;10.084;2023-11-19T09:17:56;0.45;;;0.45;;
21681;SDS011;11002;48.256;10.084;2023-11-19T09:20:25;0.40;;;0.40;;
21681;SDS011;11002;48.256;10.084;2023-11-19T09:22:52;0.63;;;0.47;;
21681;SDS011;11002;48.256;10.084;2023-11-19T09:25:19;0.50;;;0.50;;
21681;SDS011;11002;48.256;10.084;2023-11-19T09:27:46;0.32;;;0.32;;
21681;SDS011;11002;48.256;10.084;2023-11-19T09:30:14;1.08;;;0.77;;
21681;SDS011;11002;48.256;10.084;2023-11-19T09:32:42;0.60;;;0.60;;
21681;SDS011;11002;48.256;10.084;2023-11-19T09:35:09;0.40;;;0.40;;
21681;SDS011;11002;48.256;10.084;2023-11-19T09:37:40;0.50;;;0.50;;
21681;SDS011;11002;48.256;10.084;2023-11-19T09:40:07;0.60;;;0.60;;
21681;SDS011;11002;48.256;10.084;2023-11-19T09:42:39;0.60;;;0.50;;
21681;SDS011;11002;48.256;10.084;2023-11-19T09:45:12;0.90;;;0.80;;
21681;SDS011;11002;48.256;10.084;2023-11-19T09:47:42;1.17;;;0.70;;
21681;SDS011;11002;48.256;10.084;2023-11-19T09:50:12;0.93;;;0.70;;
21681;SDS011;11002;48.256;10.084;2023-11-19T09:52:44;0.30;;;0.30;;
21681;SDS011;11002;48.256;10.084;2023-11-19T09:55:12;0.50;;;0.50;;
21681;SDS011;11002;48.256;10.084;2023-11-19T09:57:39;1.05;;;0.77;;
21681;SDS011;11002;48.256;10.084;2023-11-19T10:00:07;1.23;;;1.10;;
21681;SDS011;11002;48.256;10.084;2023-11-19T10:02:36;0.55;;;0.52;;
21681;SDS011;11002;48.256;10.084;2023-11-19T10:05:06;0.60;;;0.60;;
21681;SDS011;11002;48.256;10.084;2023-11-19T10:07:34;1.02;;;0.60;;
21681;SDS011;11002;48.256;10.084;2023-11-19T10:10:03;1.70;;;1.27;;
21681;SDS011;11002;48.256;10.084;2023-11-19T10:12:31;0.65;;;0.50;;
21681;SDS011;11002;48.256;10.084;2023-11-19T10:15:01;0.50;;;0.50;;
21681;SDS011;11002;48.256;10.084;2023-11-19T10:17:30;0.30;;;0.30;;
21681;SDS011;11002;48.256;10.084;2023-11-19T10:20:00;0.20;;;0.20;;
21681;SDS011;11002;48.256;10.084;2023-11-19T10:22:27;0.70;;;0.40;;
21681;SDS011;11002;48.256;10.084;2023-11-19T10:24:55;0.25;;;0.25;;
21681;SDS011;11002;48.256;10.084;2023-11-19T10:27:25;1.17;;;0.40;;
21681;SDS011;11002;48.256;10.084;2023-11-19T10:29:52;0.57;;;0.52;;
21681;SDS011;11002;48.256;10.084;2023-11-19T10:32:19;0.50;;;0.50;;
21681;SDS011;11002;48.256;10.084;2023-11-19T10:34:46;1.60;;;1.05;;
21681;SDS011;11002;48.256;10.084;2023-11-19T10:37:27;3.42;;;2.25;;
21681;SDS011;11002;48.256;10.084;2023-11-19T10:39:57;2.55;;;1.40;;
21681;SDS011;11002;48.256;10.084;2023-11-19T10:42:26;0.50;;;0.50;;
21681;SDS011;11002;48.256;10.084;2023-11-19T10:44:53;0.30;;;0.30;;
21681;SDS011;11002;48.256;10.084;2023-11-19T10:47:20;0.30;;;0.30;;
21681;SDS011;11002;48.256;10.084;2023-11-19T10:49:50;0.10;;;0.10;;
21681;SDS011;11002;48.256;10.084;2023-11-19T10:52:17;0.40;;;0.20;;
21681;SDS011;11002;48.256;10.084;2023-11-19T10:54:48;0.55;;;0.30;;
21681;SDS011;11002;48.256;10.084;2023-11-19T10:57:19;0.75;;;0.40;;
21681;SDS011;11002;48.256;10.084;2023-11-19T10:59:53;1.00;;;0.57;;
21681;SDS011;11002;48.256;10.084;2023-11-19T11:02:27;0.40;;;0.17;;
21681;SDS011;11002;48.256;10.084;2023-11-19T11:04:59;0.70;;;0.65;;
21681;SDS011;11002;48.256;10.084;2023-11-19T11:07:28;0.20;;;0.20;;
21681;SDS011;11002;48.256;10.084;2023-11-19T11:09:57;0.20;;;0.20;;
21681;SDS011;11002;48.256;10.084;2023-11-19T11:12:25;0.38;;;0.17;;
21681;SDS011;11002;48.256;10.084;2023-11-19T11:14:55;0.15;;;0.15;;
21681;SDS011;11002;48.256;10.084;2023-11-19T11:17:24;0.52;;;0.38;;
21681;SDS011;11002;48.256;10.084;2023-11-19T11:19:54;0.20;;;0.20;;
21681;SDS011;11002;48.256;10.084;2023-11-19T11:22:22;0.40;;;0.20;;
21681;SDS011;11002;48.256;10.084;2023-11-19T11:27:51;0.10;;;0.10;;
21681;SDS011;11002;48.256;10.084;2023-11-19T11:30:42;0.20;;;0.20;;
21681;SDS011;11002;48.256;10.084;2023-11-19T11:33:28;0.25;;;0.25;;
21681;SDS011;11002;48.256;10.084;2023-11-19T11:36:08;0.10;;;0.10;;
21681;SDS011;11002;48.256;10.084;2023-11-19T11:38:42;0.20;;;0.10;;
21681;SDS011;11002;48.256;10.084;2023-11-19T11:41:20;0.10;;;0.10;;
21681;SDS011;11002;48.256;10.084;2023-11-19T11:43:48;0.10;;;0.10;;
21681;SDS011;11002;48.256;10.084;2023-11-19T11:49:25;0.17;;;0.10;;
21681;SDS011;11002;48.256;10.084;2023-11-19T11:51:57;0.30;;;0.20;;
21681;SDS011;11002;48.256;10.084;2023-11-19T11:54:25;0.10;;;0.10;;
21681;SDS011;11002;48.256;10.084;2023-11-19T11:57:03;0.20;;;0.10;;
21681;SDS011;11002;48.256;10.084;2023-11-19T12:02:18;0.00;;;0.00;;
21681;SDS011;11002;48.256;10.084;2023-11-19T12:04:47;1.45;;;0.10;;
21681;SDS011;11002;48.256;10.084;2023-11-19T12:07:16;0.20;;;0.20;;
21681;SDS011;11002;48.256;10.084;2023-11-19T12:09:48;0.15;;;0.10;;
21681;SDS011;11002;48.256;10.084;2023-11-19T12:12:22;1.42;;;0.05;;
21681;SDS011;11002;48.256;10.084;2023-11-19T12:15:05;0.25;;;0.20;;
21681;SDS011;11002;48.256;10.084;2023-11-19T12:20:25;0.10;;;0.10;;
21681;SDS011;11002;48.256;10.084;2023-11-19T12:22:56;0.03;;;0.03;;
21681;SDS011;11002;48.256;10.084;2023-11-19T12:25:24;0.10;;;0.03;;
21681;SDS011;11002;48.256;10.084;2023-11-19T12:27:52;0.28;;;0.13;;
21681;SDS011;11002;48.256;10.084;2023-11-19T12:30:21;0.30;;;0.10;;
21681;SDS011;11002;48.256;10.084;2023-11-19T12:32:49;0.45;;;0.28;;
21681;SDS011;11002;48.256;10.084;2023-11-19T12:35:20;0.22;;;0.13;;
21681;SDS011;11002;48.256;10.084;2023-11-19T12:37:47;0.65;;;0.10;;
21681;SDS011;11002;48.256;10.084;2023-11-19T12:40:17;0.22;;;0.22;;
21681;SDS011;11002;48.256;10.084;2023-11-19T12:42:45;0.13;;;0.10;;
21681;SDS011;11002;48.256;10.084;2023-11-19T12:45:12;0.20;;;0.10;;
21681;SDS011;11002;48.256;10.084;2023-11-19T12:47:40;0.15;;;0.10;;
21681;SDS011;11002;48.256;10.084;2023-11-19T12:50:07;1.20;;;0.20;;
21681;SDS011;11002;48.256;10.084;2023-11-19T12:52:37;0.10;;;0.10;;
21681;SDS011;11002;48.256;10.084;2023-11-19T12:55:05;0.00;;;0.00;;
21681;SDS011;11002;48.256;10.084;2023-11-19T12:57:51;0.35;;;0.00;;
21681;SDS011;11002;48.256;10.084;2023-11-19T13:00:20;0.28;;;0.10;;
21681;SDS011;11002;48.256;10.084;2023-11-19T13:02:48;0.10;;;0.10;;
21681;SDS011;11002;48.256;10.084;2023-11-19T13:05:20;0.43;;;0.10;;
21681;SDS011;11002;48.256;10.084;2023-11-19T13:07:50;0.08;;;0.08;;
21681;SDS011;11002;48.256;10.084;2023-11-19T13:10:18;0.05;;;0.00;;
21681;SDS011;11002;48.256;10.084;2023-11-19T13:12:59;1.25;;;0.20;;
21681;SDS011;11002;48.256;10.084;2023-11-19T13:15:27;0.10;;;0.10;;
21681;SDS011;11002;48.256;10.084;2023-11-19T13:17:54;0.30;;;0.20;;
21681;SDS011;11002;48.256;10.084;2023-11-19T13:20:21;0.05;;;0.05;;
21681;SDS011;11002;48.256;10.084;2023-11-19T13:22:57;0.17;;;0.10;;
21681;SDS011;11002;48.256;10.084;2023-11-19T13:25:25;0.45;;;0.20;;
21681;SDS011;11002;48.256;10.084;2023-11-19T13:27:53;1.08;;;0.47;;
21681;SDS011;11002;48.256;10.084;2023-11-19T13:30:26;0.28;;;0.10;;
21681;SDS011;11002;48.256;10.084;2023-11-19T13:32:54;0.00;;;0.00;;
21681;SDS011;11002;48.256;10.084;2023-11-19T13:35:21;0.00;;;0.00;;
21681;SDS011;11002;48.256;10.084;2023-11-19T13:37:49;0.03;;;0.00;;
21681;SDS011;11002;48.256;10.084;2023-11-19T13:40:18;1.70;;;0.50;;
21681;SDS011;11002;48.256;10.084;2023-11-19T13:42:47;0.57;;;0.20;;
21681;SDS011;11002;48.256;10.084;2023-11-19T13:45:15;1.00;;;0.63;;
21681;SDS011;11002;48.256;10.084;2023-11-19T13:47:46;2.55;;;0.70;;
21681;SDS011;11002;48.256;10.084;2023-11-19T13:50:14;2.28;;;1.00;;
21681;SDS011;11002;48.256;10.084;2023-11-19T13:52:45;1.33;;;0.52;;
21681;SDS011;11002;48.256;10.084;2023-11-19T13:55:13;0.80;;;0.50;;
21681;SDS011;11002;48.256;10.084;2023-11-19T13:57:44;2.15;;;0.60;;
21681;SDS011;11002;48.256;10.084;2023-11-19T14:00:14;0.20;;;0.20;;
21681;SDS011;11002;48.256;10.084;2023-11-19T14:02:42;0.20;;;0.20;;
21681;SDS011;11002;48.256;10.084;2023-11-19T14:05:10;0.57;;;0.45;;
21681;SDS011;11002;48.256;10.084;2023-11-19T14:07:37;0.30;;;0.05;;
21681;SDS011;11002;48.256;10.084;2023-11-19T14:10:05;0.20;;;0.20;;
21681;SDS011;11002;48.256;10.084;2023-11-19T14:12:34;0.50;;;0.32;;
21681;SDS011;11002;48.256;10.084;2023-11-19T14:15:04;0.65;;;0.30;;
21681;SDS011;11002;48.256;10.084;2023-11-19T14:17:32;0.30;;;0.30;;
21681;SDS011;11002;48.256;10.084;2023-11-19T14:20:00;0.20;;;0.20;;
21681;SDS011;11002;48.256;10.084;2023-11-19T14:22:28;0.30;;;0.20;;
21681;SDS011;11002;48.256;10.084;2023-11-19T14:24:55;0.35;;;0.20;;
21681;SDS011;11002;48.256;10.084;2023-11-19T14:27:24;0.45;;;0.32;;
21681;SDS011;11002;48.256;10.084;2023-11-19T14:29:51;0.38;;;0.20;;
21681;SDS011;11002;48.256;10.084;2023-11-19T14:32:20;0.95;;;0.60;;
21681;SDS011;11002;48.256;10.084;2023-11-19T14:34:48;0.38;;;0.38;;
21681;SDS011;11002;48.256;10.084;2023-11-19T14:37:15;0.85;;;0.30;;
21681;SDS011;11002;48.256;10.084;2023-11-19T14:39:42;3.83;;;0.30;;
21681;SDS011;11002;48.256;10.084;2023-11-19T14:42:09;0.32;;;0.13;;
21681;SDS011;11002;48.256;10.084;2023-11-19T14:44:37;0.63;;;0.32;;
21681;SDS011;11002;48.256;10.084;2023-11-19T14:47:04;3.00;;;0.30;;
21681;SDS011;11002;48.256;10.084;2023-11-19T14:49:33;0.63;;;0.43;;
21681;SDS011;11002;48.256;10.084;2023-11-19T14:52:02;0.40;;;0.40;;